createdAt,value
2023-04-09T00:04:16.028Z,59.84
2023-04-09T00:09:19.020Z,58.04
2023-04-09T00:14:21.591Z,60.99
2023-04-09T00:19:24.973Z,67.45
2023-04-09T00:24:27.495Z,64.92
2023-04-09T00:29:30.073Z,62.35
2023-04-09T00:34:32.628Z,60.38
2023-04-09T00:39:35.438Z,58.33
2023-04-09T00:44:38.078Z,62.35
2023-04-09T00:49:40.934Z,65.30
2023-04-09T00:54:43.567Z,62.33
2023-04-09T00:59:46.377Z,60.89
2023-04-09T01:04:50.392Z,58.50
2023-04-09T01:10:17.005Z,60.68
2023-04-09T01:15:24.944Z,66.77
2023-04-09T01:20:39.434Z,63.33
2023-04-09T01:25:56.971Z,61.19
2023-04-09T01:31:02.697Z,59.92
2023-04-09T01:36:07.195Z,58.64
2023-04-09T01:41:14.742Z,65.00
2023-04-09T01:46:19.326Z,64.66
2023-04-09T01:51:22.052Z,62.55
2023-04-09T01:56:24.570Z,61.30
2023-04-09T02:01:41.590Z,60.20
2023-04-09T02:06:58.064Z,59.16
2023-04-09T02:12:05.686Z,60.34
2023-04-09T02:17:08.339Z,66.96
2023-04-09T02:22:12.008Z,64.63
2023-04-09T02:27:14.776Z,61.87
2023-04-09T02:32:17.412Z,61.15
2023-04-09T02:37:20.058Z,60.20
2023-04-09T02:42:22.567Z,59.30
2023-04-09T02:47:27.144Z,62.58
2023-04-09T02:52:29.772Z,64.93
2023-04-09T02:57:33.716Z,62.86
2023-04-09T03:02:36.473Z,60.28
2023-04-09T03:07:39.125Z,63.74
2023-04-09T03:12:44.391Z,65.37
2023-04-09T03:17:46.953Z,63.45
2023-04-09T03:22:49.590Z,62.26
2023-04-09T03:27:52.260Z,62.35
2023-04-09T03:32:54.880Z,61.95
2023-04-09T03:37:57.419Z,61.94
2023-04-09T03:42:59.918Z,62.25
2023-04-09T03:48:02.542Z,62.46
2023-04-09T03:53:05.373Z,62.26
2023-04-09T03:58:07.854Z,62.41
2023-04-09T04:03:12.371Z,62.60
2023-04-09T04:08:15.099Z,62.16
2023-04-09T04:13:17.684Z,63.06
2023-04-09T04:18:20.176Z,61.87
2023-04-09T04:23:22.915Z,61.56
2023-04-09T04:28:25.506Z,62.17
2023-04-09T04:33:28.114Z,61.15
2023-04-09T04:38:30.686Z,63.63
2023-04-09T04:43:33.543Z,65.50
2023-04-09T04:48:36.164Z,63.55
2023-04-09T04:53:38.744Z,62.91
2023-04-09T04:58:42.249Z,62.92
2023-04-09T05:03:44.919Z,63.19
2023-04-09T05:08:47.528Z,62.97
2023-04-09T05:13:50.439Z,63.04
2023-04-09T05:18:53.180Z,62.60
2023-04-09T05:23:55.942Z,62.92
2023-04-09T05:28:58.533Z,62.38
2023-04-09T05:34:01.169Z,61.82
2023-04-09T05:39:03.849Z,61.25
2023-04-09T05:44:06.454Z,60.94
2023-04-09T05:49:09.095Z,61.52
2023-04-09T05:54:11.632Z,61.15
2023-04-09T05:59:14.142Z,61.65
2023-04-09T06:04:16.913Z,61.88
2023-04-09T06:09:19.822Z,62.04
2023-04-09T06:14:22.341Z,62.08
2023-04-09T06:19:24.924Z,62.10
2023-04-09T06:24:27.472Z,61.96
2023-04-09T06:29:30.227Z,62.60
2023-04-09T06:34:32.734Z,61.73
2023-04-09T06:39:35.325Z,61.10
2023-04-09T06:44:37.904Z,61.31
2023-04-09T06:49:40.444Z,60.52
2023-04-09T06:54:42.963Z,59.82
2023-04-09T06:59:45.530Z,59.02
2023-04-09T07:04:48.158Z,59.67
2023-04-09T07:09:51.290Z,65.94
2023-04-09T07:15:00.668Z,63.91
2023-04-09T07:20:04.073Z,61.73
2023-04-09T07:25:07.448Z,59.18
2023-04-09T07:30:10.850Z,61.51
2023-04-09T07:35:13.417Z,64.44
2023-04-09T07:40:16.377Z,61.04
2023-04-09T07:45:19.297Z,58.91
2023-04-09T07:50:22.080Z,63.53
2023-04-09T07:55:24.690Z,64.77
2023-04-09T08:00:27.227Z,61.87
2023-04-09T08:05:30.751Z,60.23
2023-04-09T08:10:33.288Z,58.23
2023-04-09T08:15:36.198Z,62.59
2023-04-09T08:20:44.784Z,64.81
2023-04-09T08:25:47.455Z,61.95
2023-04-09T08:30:50.075Z,60.83
2023-04-09T08:35:52.619Z,57.69
2023-04-09T08:40:55.347Z,60.56
2023-04-09T08:45:59.499Z,64.45
2023-04-09T08:51:02.356Z,57.55
2023-04-09T08:56:05.348Z,59.22
2023-04-09T09:01:21.884Z,63.92
2023-04-09T09:06:30.099Z,59.71
2023-04-09T09:11:34.473Z,58.75
2023-04-09T09:16:42.683Z,60.80
2023-04-09T09:21:56.674Z,64.09
2023-04-09T09:26:59.685Z,58.32
2023-04-09T09:32:02.231Z,57.77
2023-04-09T09:37:28.202Z,61.61
2023-04-09T09:42:31.806Z,61.59
2023-04-09T09:47:34.706Z,56.60
2023-04-09T09:52:39.313Z,58.50
2023-04-09T09:57:44.718Z,63.25
2023-04-09T10:02:56.634Z,59.49
2023-04-09T10:08:00.424Z,59.10
2023-04-09T10:13:06.050Z,62.38
2023-04-09T10:18:08.954Z,57.49
2023-04-09T10:23:19.598Z,57.94
2023-04-09T10:28:23.237Z,59.75
2023-04-09T10:33:28.103Z,63.59
2023-04-09T10:38:37.521Z,60.68
2023-04-09T10:43:41.123Z,55.76
2023-04-09T10:48:44.276Z,58.90
2023-04-09T10:53:46.798Z,60.10
2023-04-09T10:58:49.434Z,61.25
2023-04-09T11:04:10.740Z,56.07
2023-04-09T11:09:13.559Z,54.38
2023-04-09T11:14:20.411Z,57.42
2023-04-09T11:19:23.171Z,60.53
2023-04-09T11:24:25.701Z,57.11
2023-04-09T11:29:28.242Z,56.53
2023-04-09T11:34:33.958Z,56.66
2023-04-09T11:39:37.291Z,60.04
2023-04-09T11:44:41.047Z,58.91
2023-04-09T11:49:46.643Z,60.87
2023-04-09T11:54:50.221Z,61.29
2023-04-09T11:59:52.772Z,60.81
2023-04-09T12:04:55.633Z,54.84
2023-04-09T12:10:03.889Z,56.27
2023-04-09T12:15:19.566Z,56.36
2023-04-09T12:20:35.229Z,56.84
2023-04-09T12:25:41.025Z,59.39
2023-04-09T12:30:44.363Z,57.85
2023-04-09T12:35:47.127Z,58.00
2023-04-09T12:40:49.741Z,59.29
2023-04-09T12:45:53.034Z,60.26
2023-04-09T12:50:55.900Z,60.65
2023-04-09T12:55:59.227Z,58.85
2023-04-09T13:01:04.068Z,60.24
2023-04-09T13:06:06.987Z,58.39
2023-04-09T13:11:09.611Z,57.53
2023-04-09T13:16:12.283Z,57.53
2023-04-09T13:21:18.762Z,56.55
2023-04-09T13:26:21.620Z,55.69
2023-04-09T13:31:25.154Z,53.84
2023-04-09T13:36:27.879Z,54.63
2023-04-09T13:41:33.976Z,51.65
2023-04-09T13:46:36.724Z,51.71
2023-04-09T13:51:39.962Z,52.17
2023-04-09T13:56:42.498Z,50.53
2023-04-09T14:01:45.404Z,52.51
2023-04-09T14:06:47.988Z,50.85
2023-04-09T14:11:50.955Z,48.93
2023-04-09T14:16:54.004Z,48.84
2023-04-09T14:21:56.594Z,47.39
2023-04-09T14:26:59.467Z,47.95
2023-04-09T14:32:02.396Z,48.87
2023-04-09T14:37:05.031Z,50.05
2023-04-09T14:42:07.622Z,51.03
2023-04-09T14:47:10.308Z,51.79
2023-04-09T14:52:12.949Z,52.70
2023-04-09T14:57:15.542Z,52.79
2023-04-09T15:02:18.224Z,52.73
2023-04-09T15:07:22.818Z,52.78
2023-04-09T15:12:28.281Z,53.26
2023-04-09T15:17:30.869Z,52.83
2023-04-09T15:22:33.507Z,51.52
2023-04-09T15:27:36.120Z,51.44
2023-04-09T15:32:38.691Z,51.10
2023-04-09T15:37:41.693Z,49.14
2023-04-09T15:42:44.437Z,48.93
2023-04-09T15:47:47.092Z,48.52
2023-04-09T15:52:49.872Z,48.48
2023-04-09T15:57:53.022Z,48.70
2023-04-09T16:02:55.704Z,49.67
2023-04-09T16:07:59.934Z,49.95
2023-04-09T16:13:03.487Z,51.29
2023-04-09T16:18:06.212Z,53.46
2023-04-09T16:23:08.835Z,55.82
2023-04-09T16:28:11.601Z,57.67
2023-04-09T16:33:14.276Z,59.28
2023-04-09T16:38:17.081Z,61.07
2023-04-09T16:43:19.678Z,61.78
2023-04-09T16:48:22.382Z,63.21
2023-04-09T16:53:25.655Z,57.31
2023-04-09T16:58:28.945Z,57.60
2023-04-09T17:03:31.977Z,59.69
2023-04-09T17:08:35.305Z,61.98
2023-04-09T17:13:38.117Z,63.01
2023-04-09T17:18:41.421Z,57.04
2023-04-09T17:23:44.875Z,59.99
2023-04-09T17:28:47.643Z,62.98
2023-04-09T17:33:50.333Z,59.09
2023-04-09T17:38:53.529Z,57.77
2023-04-09T17:43:56.218Z,61.85
2023-04-09T17:48:58.867Z,63.17
2023-04-09T17:54:01.423Z,58.21
2023-04-09T17:59:03.984Z,59.98
2023-04-09T18:04:06.895Z,62.70
2023-04-09T18:09:10.022Z,64.23
2023-04-09T18:14:13.143Z,59.43
2023-04-09T18:19:15.989Z,59.02
2023-04-09T18:24:18.930Z,63.82
2023-04-09T18:29:21.834Z,62.16
2023-04-09T18:34:25.780Z,58.23
2023-04-09T18:39:30.724Z,62.31
2023-04-09T18:44:37.505Z,63.62
2023-04-09T18:49:40.491Z,60.59
2023-04-09T18:54:43.360Z,56.98
2023-04-09T18:59:46.591Z,58.95
2023-04-09T19:04:49.341Z,60.33
2023-04-09T19:09:52.145Z,66.67
2023-04-09T19:14:54.820Z,62.23
2023-04-09T19:19:57.946Z,57.84
2023-04-09T19:25:01.033Z,60.65
2023-04-09T19:30:04.485Z,65.15
2023-04-09T19:35:08.341Z,61.45
2023-04-09T19:40:11.461Z,58.20
2023-04-09T19:45:14.037Z,61.11
2023-04-09T19:50:16.862Z,65.49
2023-04-09T19:55:19.453Z,61.75
2023-04-09T20:00:22.198Z,58.52
2023-04-09T20:05:25.074Z,63.02
2023-04-09T20:10:27.670Z,63.97
2023-04-09T20:15:30.194Z,59.41
2023-04-09T20:20:32.974Z,60.33
2023-04-09T20:25:36.651Z,64.13
2023-04-09T20:30:39.268Z,60.31
2023-04-09T20:35:41.923Z,59.30
2023-04-09T20:40:44.500Z,64.75
2023-04-09T20:45:47.442Z,63.78
2023-04-09T20:50:50.584Z,60.00
2023-04-09T20:55:54.532Z,58.83
2023-04-09T21:01:09.114Z,64.38
2023-04-09T21:06:11.642Z,63.31
2023-04-09T21:11:14.814Z,60.44
2023-04-09T21:16:17.600Z,57.73
2023-04-09T21:21:20.487Z,59.82
2023-04-09T21:26:24.915Z,66.45
2023-04-09T21:31:27.507Z,63.90
2023-04-09T21:36:30.362Z,61.09
2023-04-09T21:41:32.904Z,58.39
2023-04-09T21:46:36.945Z,58.65
2023-04-09T21:51:39.787Z,60.94
2023-04-09T21:56:42.281Z,65.98
2023-04-09T22:01:46.922Z,65.90
2023-04-09T22:06:50.830Z,62.64
2023-04-09T22:11:53.685Z,59.78
2023-04-09T22:16:58.174Z,57.89
2023-04-09T22:22:00.938Z,63.66
2023-04-09T22:27:03.647Z,64.16
2023-04-09T22:32:06.234Z,60.00
2023-04-09T22:37:08.753Z,59.95
2023-04-09T22:42:12.056Z,65.30
2023-04-09T22:47:14.605Z,62.26
2023-04-09T22:52:17.110Z,59.16
2023-04-09T22:57:19.754Z,59.30
2023-04-09T23:02:22.384Z,65.93
2023-04-09T23:07:24.990Z,64.23
2023-04-09T23:12:27.474Z,61.62
2023-04-09T23:17:30.321Z,58.67
2023-04-09T23:22:32.836Z,63.24
2023-04-09T23:27:35.456Z,64.79
2023-04-09T23:32:37.949Z,62.12
2023-04-09T23:37:42.534Z,60.49
2023-04-09T23:42:45.709Z,58.36
2023-04-09T23:47:48.265Z,58.47
2023-04-09T23:52:51.438Z,61.77
2023-04-09T23:57:53.972Z,69.63
